MSC Opera — H3FV — position and weather

sailwx.info

Track history (hours):
 
Tides and Currents Weather Stations Pressure Air Temp Water Temp Dewpoint Dewpoint Depression Visibility Wind Speed Wind Dir Waves Ship Positions

MSC Opera

Operator: Mediterranean Shipping Company

Last reported at 2019-May-19 20:02 UTC. Time now 2019-May-20 16:44 UTC.
Position N 44°28' E 013°42'.

Length 275 m; draft 6.8 m.

Type: Passenger vessel. MMSI: 357627000.

Date/timePositionNaut miles runAvg speedWind from/ knotsBaromVisibWave heightAir tempDewpointWater temp
2019-May-19 20:02N 44°28' E 013°42'219.2
2019-May-19 19:56N 44°29' E 013°40'819.2
2019-May-19 19:30N 44°36' E 013°34'918.9
2019-May-19 19:01N 44°44' E 013°27'918.8
2019-May-19 18:30N 44°52' E 013°20'918.8
2019-May-19 18:00N 44°59' E 013°11'1019.4
2019-May-19 17:30N 45°05' E 013°01'1019.2
2019-May-19 17:00N 45°12' E 012°50'918.9
2019-May-19 16:30N 45°17' E 012°40'816.7
2019-May-19 16:01N 45°23' E 012°30'510.3
2019-May-19 15:31N 45°26' E 012°25'3 5.4
2019-May-19 15:01N 45°26' E 012°21'2 3.2
2019-May-19 14:30N 45°26' E 012°18'0 0.0
2019-May-19 13:56N 45°26' E 012°19'0 0.0
2019-May-19 13:22N 45°26' E 012°19'0 0.0
2019-May-19 12:55N 45°26' E 012°19'0 0.0
2019-May-19 12:19N 45°26' E 012°19'0 0.0
2019-May-19 11:58N 45°26' E 012°19'0 0.0
2019-May-19 11:24N 45°26' E 012°19'0 0.0
2019-May-19 11:00N 45°26' E 012°19'0 0.0
2019-May-19 10:30N 45°26' E 012°19'0 0.0
2019-May-19 10:00N 45°26' E 012°19'0 0.0
2019-May-19 09:27N 45°26' E 012°19'0 0.0
2019-May-19 08:56N 45°26' E 012°19'0 0.0
2019-May-19 08:29N 45°26' E 012°19'0 0.0
2019-May-19 07:59N 45°26' E 012°19'0 0.0
2019-May-19 07:29N 45°26' E 012°19'0 0.0
2019-May-19 07:00N 45°26' E 012°19'1 2.4
2019-May-19 06:31N 45°26' E 012°20'3 5.2
2019-May-19 06:00N 45°26' E 012°24'4 8.3
2019-May-19 05:30N 45°24' E 012°29'612.3
2019-May-19 05:00N 45°21' E 012°36'815.0
2019-May-19 04:30N 45°17' E 012°45'815.6
2019-May-19 04:01N 45°11' E 012°53'815.9
2019-May-19 03:31N 45°06' E 013°02'816.2
2019-May-19 03:00N 45°02' E 013°11'816.2
2019-May-19 02:31N 44°57' E 013°21'918.3
2019-May-19 02:00N 44°50' E 013°29'918.6
2019-May-19 01:31N 44°42' E 013°36'918.5
2019-May-19 01:00N 44°34' E 013°43'918.5
2019-May-19 00:30N 44°27' E 013°51'1218.5
2019-May-18 23:50N 44°16' E 013°59'  
2019-May-16 00:15N 37°06' E 024°57'314.5
2019-May-16 00:00N 37°09' E 024°58'917.5
2019-May-15 23:30N 37°17' E 025°04'918.3
2019-May-15 23:00N 37°25' E 025°09'714.5
2019-May-15 22:30N 37°28' E 025°17'2 3.2
2019-May-15 21:58N 37°28' E 025°19'0 0.0
2019-May-15 21:24N 37°28' E 025°19'0 0.0
2019-May-15 21:00N 37°28' E 025°19'0 0.0
2019-May-15 20:30N 37°28' E 025°19'0 0.0
2019-May-15 20:00N 37°28' E 025°19'0 0.0
2019-May-15 19:26N 37°28' E 025°19'0 0.0
2019-May-15 18:59N 37°28' E 025°19'0 0.0
2019-May-15 18:29N 37°28' E 025°19'0 0.0
2019-May-15 17:59N 37°28' E 025°19'0 0.0
2019-May-15 17:29N 37°28' E 025°19'0 0.0
2019-May-15 16:58N 37°28' E 025°19'0 0.0
2019-May-15 16:25N 37°28' E 025°19'0 0.0
2019-May-15 15:58N 37°28' E 025°19'0 0.0
2019-May-15 15:28N 37°28' E 025°19'0 0.0
2019-May-15 14:58N 37°28' E 025°19'0 0.0
2019-May-15 14:30N 37°28' E 025°19'0 0.0
2019-May-15 14:00N 37°28' E 025°19'0 0.0
2019-May-15 13:30N 37°28' E 025°19'0 0.0
2019-May-15 13:00N 37°28' E 025°19'0 0.0
2019-May-15 12:29N 37°28' E 025°19'0 0.0
2019-May-15 11:59N 37°28' E 025°19'0 0.0
2019-May-15 11:29N 37°28' E 025°19'0 0.0
2019-May-15 10:59N 37°28' E 025°19'0 0.0
2019-May-15 10:29N 37°28' E 025°19'0 0.0
2019-May-15 09:58N 37°28' E 025°19'0 0.0
2019-May-15 09:28N 37°28' E 025°19'0 0.0
2019-May-15 08:58N 37°28' E 025°19'0 0.0
2019-May-15 08:28N 37°28' E 025°19'0 0.0
2019-May-15 07:58N 37°28' E 025°19'0 0.0
2019-May-15 07:30N 37°28' E 025°19'0 0.0
2019-May-15 07:00N 37°28' E 025°19'0 0.0
2019-May-15 06:30N 37°28' E 025°19'0 0.0
2019-May-15 06:00N 37°28' E 025°19'0 0.0
2019-May-15 05:29N 37°28' E 025°19'0 0.9
2019-May-15 05:00N 37°28' E 025°19'510.5
2019-May-15 04:30N 37°28' E 025°12'713.6
2019-May-15 04:01N 37°22' E 025°08'714.4
2019-May-15 03:30N 37°17' E 025°01'815.3
2019-May-15 03:00N 37°13' E 024°53'  
2019-May-12 21:04N 44°13' E 013°56'219.4
2019-May-12 20:59N 44°14' E 013°54'1419.4
2019-May-12 20:14N 44°26' E 013°44'519.6
2019-May-12 20:01N 44°30' E 013°40'1119.6
2019-May-12 19:27N 44°39' E 013°32'919.4
2019-May-12 19:01N 44°46' E 013°25'1019.3
2019-May-12 18:31N 44°54' E 013°18'1019.2
2019-May-12 18:01N 45°01' E 013°08'918.1
2019-May-12 17:30N 45°07' E 012°58'918.1
2019-May-12 17:00N 45°13' E 012°48'918.1
2019-May-12 16:31N 45°18' E 012°38'816.3
2019-May-12 16:00N 45°23' E 012°29'5 9.7
2019-May-12 15:30N 45°26' E 012°24'3 5.2
2019-May-12 15:00N 45°26' E 012°20'1 2.3
2019-May-12 14:30N 45°26' E 012°18'0 0.0
2019-May-12 13:57N 45°26' E 012°18'0 0.0
2019-May-12 13:20N 45°26' E 012°18'0 0.0
2019-May-12 12:56N 45°26' E 012°18'0 0.0
2019-May-12 12:26N 45°26' E 012°18'0 0.0
2019-May-12 11:56N 45°26' E 012°18'0 0.0
2019-May-12 11:14N 45°26' E 012°18'0 0.0
2019-May-12 10:58N 45°26' E 012°18'0 0.0
2019-May-12 10:28N 45°26' E 012°18'0 0.0
2019-May-12 09:55N 45°26' E 012°18'0 0.0
2019-May-12 09:19N 45°26' E 012°18'0 0.0
2019-May-12 08:58N 45°26' E 012°18'0 0.0
2019-May-12 08:30N 45°26' E 012°18'0 0.0
2019-May-12 08:00N 45°26' E 012°18'0 0.0
2019-May-12 07:24N 45°26' E 012°18'0 0.0
2019-May-12 07:00N 45°26' E 012°18'1 1.0
2019-May-12 06:30N 45°26' E 012°19'3 5.3
2019-May-12 06:00N 45°26' E 012°23'4 8.2
2019-May-12 05:30N 45°24' E 012°28'713.7
2019-May-12 05:01N 45°21' E 012°36'816.6
2019-May-12 04:31N 45°16' E 012°46'816.5
2019-May-12 04:00N 45°10' E 012°55'917.3
2019-May-12 03:31N 45°05' E 013°04'917.2
2019-May-12 03:00N 44°60' E 013°14'817.1
2019-May-12 02:31N 44°54' E 013°23'917.5
2019-May-12 02:00N 44°47' E 013°31'917.5
2019-May-12 01:31N 44°40' E 013°38'917.5
2019-May-12 01:00N 44°33' E 013°44'917.6
2019-May-12 00:31N 44°25' E 013°51'1017.7
2019-May-11 23:56N 44°17' E 013°59'1818.3
2019-May-11 22:58N 44°02' E 014°13'918.8
2019-May-11 22:31N 43°56' E 014°21'1518.8
2019-May-11 21:41N 43°44' E 014°34'318.8
2019-May-11 21:31N 43°41' E 014°37'  
Track history (hours):
 
Tides and Currents Weather Stations Pressure Air Temp Water Temp Dewpoint Dewpoint Depression Visibility Wind Speed Wind Dir Waves Ship Positions

MSC Opera

Operator: Mediterranean Shipping Company

Last reported at 2019-May-19 20:02 UTC. Time now 2019-May-20 16:44 UTC.
Position N 44°28' E 013°42'.

Length 275 m; draft 6.8 m.

Type: Passenger vessel. MMSI: 357627000.

Date/timePositionNaut miles runAvg speedWind from/ knotsBaromVisibWave heightAir tempDewpointWater temp
2019-May-19 20:02N 44°28' E 013°42'219.2
2019-May-19 19:56N 44°29' E 013°40'819.2
2019-May-19 19:30N 44°36' E 013°34'918.9
2019-May-19 19:01N 44°44' E 013°27'918.8
2019-May-19 18:30N 44°52' E 013°20'918.8
2019-May-19 18:00N 44°59' E 013°11'1019.4
2019-May-19 17:30N 45°05' E 013°01'1019.2
2019-May-19 17:00N 45°12' E 012°50'918.9
2019-May-19 16:30N 45°17' E 012°40'816.7
2019-May-19 16:01N 45°23' E 012°30'510.3
2019-May-19 15:31N 45°26' E 012°25'3 5.4
2019-May-19 15:01N 45°26' E 012°21'2 3.2
2019-May-19 14:30N 45°26' E 012°18'0 0.0
2019-May-19 13:56N 45°26' E 012°19'0 0.0
2019-May-19 13:22N 45°26' E 012°19'0 0.0
2019-May-19 12:55N 45°26' E 012°19'0 0.0
2019-May-19 12:19N 45°26' E 012°19'0 0.0
2019-May-19 11:58N 45°26' E 012°19'0 0.0
2019-May-19 11:24N 45°26' E 012°19'0 0.0
2019-May-19 11:00N 45°26' E 012°19'0 0.0
2019-May-19 10:30N 45°26' E 012°19'0 0.0
2019-May-19 10:00N 45°26' E 012°19'0 0.0
2019-May-19 09:27N 45°26' E 012°19'0 0.0
2019-May-19 08:56N 45°26' E 012°19'0 0.0
2019-May-19 08:29N 45°26' E 012°19'0 0.0
2019-May-19 07:59N 45°26' E 012°19'0 0.0
2019-May-19 07:29N 45°26' E 012°19'0 0.0
2019-May-19 07:00N 45°26' E 012°19'1 2.4
2019-May-19 06:31N 45°26' E 012°20'3 5.2
2019-May-19 06:00N 45°26' E 012°24'4 8.3
2019-May-19 05:30N 45°24' E 012°29'612.3
2019-May-19 05:00N 45°21' E 012°36'815.0
2019-May-19 04:30N 45°17' E 012°45'815.6
2019-May-19 04:01N 45°11' E 012°53'815.9
2019-May-19 03:31N 45°06' E 013°02'816.2
2019-May-19 03:00N 45°02' E 013°11'816.2
2019-May-19 02:31N 44°57' E 013°21'918.3
2019-May-19 02:00N 44°50' E 013°29'918.6
2019-May-19 01:31N 44°42' E 013°36'918.5
2019-May-19 01:00N 44°34' E 013°43'918.5
2019-May-19 00:30N 44°27' E 013°51'1218.5
2019-May-18 23:50N 44°16' E 013°59'  
2019-May-16 00:15N 37°06' E 024°57'314.5
2019-May-16 00:00N 37°09' E 024°58'917.5
2019-May-15 23:30N 37°17' E 025°04'918.3
2019-May-15 23:00N 37°25' E 025°09'714.5
2019-May-15 22:30N 37°28' E 025°17'2 3.2
2019-May-15 21:58N 37°28' E 025°19'0 0.0
2019-May-15 21:24N 37°28' E 025°19'0 0.0
2019-May-15 21:00N 37°28' E 025°19'0 0.0
2019-May-15 20:30N 37°28' E 025°19'0 0.0
2019-May-15 20:00N 37°28' E 025°19'0 0.0
2019-May-15 19:26N 37°28' E 025°19'0 0.0
2019-May-15 18:59N 37°28' E 025°19'0 0.0
2019-May-15 18:29N 37°28' E 025°19'0 0.0
2019-May-15 17:59N 37°28' E 025°19'0 0.0
2019-May-15 17:29N 37°28' E 025°19'0 0.0
2019-May-15 16:58N 37°28' E 025°19'0 0.0
2019-May-15 16:25N 37°28' E 025°19'0 0.0
2019-May-15 15:58N 37°28' E 025°19'0 0.0
2019-May-15 15:28N 37°28' E 025°19'0 0.0
2019-May-15 14:58N 37°28' E 025°19'0 0.0
2019-May-15 14:30N 37°28' E 025°19'0 0.0
2019-May-15 14:00N 37°28' E 025°19'0 0.0
2019-May-15 13:30N 37°28' E 025°19'0 0.0
2019-May-15 13:00N 37°28' E 025°19'0 0.0
2019-May-15 12:29N 37°28' E 025°19'0 0.0
2019-May-15 11:59N 37°28' E 025°19'0 0.0
2019-May-15 11:29N 37°28' E 025°19'0 0.0
2019-May-15 10:59N 37°28' E 025°19'0 0.0
2019-May-15 10:29N 37°28' E 025°19'0 0.0
2019-May-15 09:58N 37°28' E 025°19'0 0.0
2019-May-15 09:28N 37°28' E 025°19'0 0.0
2019-May-15 08:58N 37°28' E 025°19'0 0.0
2019-May-15 08:28N 37°28' E 025°19'0 0.0
2019-May-15 07:58N 37°28' E 025°19'0 0.0
2019-May-15 07:30N 37°28' E 025°19'0 0.0
2019-May-15 07:00N 37°28' E 025°19'0 0.0
2019-May-15 06:30N 37°28' E 025°19'0 0.0
2019-May-15 06:00N 37°28' E 025°19'0 0.0
2019-May-15 05:29N 37°28' E 025°19'0 0.9
2019-May-15 05:00N 37°28' E 025°19'510.5
2019-May-15 04:30N 37°28' E 025°12'713.6
2019-May-15 04:01N 37°22' E 025°08'714.4
2019-May-15 03:30N 37°17' E 025°01'815.3
2019-May-15 03:00N 37°13' E 024°53'  
2019-May-12 21:04N 44°13' E 013°56'219.4
2019-May-12 20:59N 44°14' E 013°54'1419.4
2019-May-12 20:14N 44°26' E 013°44'519.6
2019-May-12 20:01N 44°30' E 013°40'1119.6
2019-May-12 19:27N 44°39' E 013°32'919.4
2019-May-12 19:01N 44°46' E 013°25'1019.3
2019-May-12 18:31N 44°54' E 013°18'1019.2
2019-May-12 18:01N 45°01' E 013°08'918.1
2019-May-12 17:30N 45°07' E 012°58'918.1
2019-May-12 17:00N 45°13' E 012°48'918.1
2019-May-12 16:31N 45°18' E 012°38'816.3
2019-May-12 16:00N 45°23' E 012°29'5 9.7
2019-May-12 15:30N 45°26' E 012°24'3 5.2
2019-May-12 15:00N 45°26' E 012°20'1 2.3
2019-May-12 14:30N 45°26' E 012°18'0 0.0
2019-May-12 13:57N 45°26' E 012°18'0 0.0
2019-May-12 13:20N 45°26' E 012°18'0 0.0
2019-May-12 12:56N 45°26' E 012°18'0 0.0
2019-May-12 12:26N 45°26' E 012°18'0 0.0
2019-May-12 11:56N 45°26' E 012°18'0 0.0
2019-May-12 11:14N 45°26' E 012°18'0 0.0
2019-May-12 10:58N 45°26' E 012°18'0 0.0
2019-May-12 10:28N 45°26' E 012°18'0 0.0
2019-May-12 09:55N 45°26' E 012°18'0 0.0
2019-May-12 09:19N 45°26' E 012°18'0 0.0
2019-May-12 08:58N 45°26' E 012°18'0 0.0
2019-May-12 08:30N 45°26' E 012°18'0 0.0
2019-May-12 08:00N 45°26' E 012°18'0 0.0
2019-May-12 07:24N 45°26' E 012°18'0 0.0
2019-May-12 07:00N 45°26' E 012°18'1 1.0
2019-May-12 06:30N 45°26' E 012°19'3 5.3
2019-May-12 06:00N 45°26' E 012°23'4 8.2
2019-May-12 05:30N 45°24' E 012°28'713.7
2019-May-12 05:01N 45°21' E 012°36'816.6
2019-May-12 04:31N 45°16' E 012°46'816.5
2019-May-12 04:00N 45°10' E 012°55'917.3
2019-May-12 03:31N 45°05' E 013°04'917.2
2019-May-12 03:00N 44°60' E 013°14'817.1
2019-May-12 02:31N 44°54' E 013°23'917.5
2019-May-12 02:00N 44°47' E 013°31'917.5
2019-May-12 01:31N 44°40' E 013°38'917.5
2019-May-12 01:00N 44°33' E 013°44'917.6
2019-May-12 00:31N 44°25' E 013°51'1017.7
2019-May-11 23:56N 44°17' E 013°59'1818.3
2019-May-11 22:58N 44°02' E 014°13'918.8
2019-May-11 22:31N 43°56' E 014°21'1518.8
2019-May-11 21:41N 43°44' E 014°34'318.8
2019-May-11 21:31N 43°41' E 014°37'  

Dump ship's entire track history